Jameson, Missouri
Current Conditions -  °F | °C
As of 9:53 AM on Wednesday 22 Oct 2014 (Local Time) from KLWD Reporting Station
Overcast Overcast  
Wind Chill: 50°   Ceiling: 4900
Heat Index: 50°   Visibility: 10mi
Dew Point: 42°   Wind: 10mph
Humidity: 74%   Direction: 150°SSE
Pressure: 30.23"   Gusts: NA
Location:  40.01°N, 93.98°W
Report Text: KLWD 221453Z AUTO 15009KT 10SM OVC049 10/06 A3023 RMK AO2 SLP238 T01000056 52002
Loading
Personal Weather Stations






























Interactive Weather Map
Tropical Storm Tracking
New forecast layout! Learn more

10-Day Weather Forecast

Advertisements
Track Severe Weather on mobile